sensor_id;sensor_type;location;lat;lon;timestamp;pressure;altitude;pressure_sealevel;temperature
68446;BMP280;35789;48.414;12.768;2023-04-28T00:00:01;97110.0;;;
68446;BMP280;35789;48.414;12.768;2023-04-28T00:05:00;97100.0;;;
68446;BMP280;35789;48.414;12.768;2023-04-28T00:10:00;97090.0;;;
68446;BMP280;35789;48.414;12.768;2023-04-28T00:15:00;97100.0;;;
68446;BMP280;35789;48.414;12.768;2023-04-28T00:20:00;97090.0;;;
68446;BMP280;35789;48.414;12.768;2023-04-28T00:25:00;97090.0;;;
68446;BMP280;35789;48.414;12.768;2023-04-28T00:30:01;97090.0;;;
68446;BMP280;35789;48.414;12.768;2023-04-28T00:35:00;97090.0;;;
68446;BMP280;35789;48.414;12.768;2023-04-28T00:40:00;97090.0;;;
68446;BMP280;35789;48.414;12.768;2023-04-28T00:45:00;97080.0;;;
68446;BMP280;35789;48.414;12.768;2023-04-28T00:50:01;97070.0;;;
68446;BMP280;35789;48.414;12.768;2023-04-28T00:55:01;97070.0;;;
68446;BMP280;35789;48.414;12.768;2023-04-28T01:00:01;97050.0;;;
68446;BMP280;35789;48.414;12.768;2023-04-28T01:05:01;97060.0;;;
68446;BMP280;35789;48.414;12.768;2023-04-28T01:10:01;97060.0;;;
68446;BMP280;35789;48.414;12.768;2023-04-28T01:15:00;97070.0;;;
68446;BMP280;35789;48.414;12.768;2023-04-28T01:20:00;97060.0;;;
68446;BMP280;35789;48.414;12.768;2023-04-28T01:25:00;97060.0;;;
68446;BMP280;35789;48.414;12.768;2023-04-28T01:30:00;97060.0;;;
68446;BMP280;35789;48.414;12.768;2023-04-28T01:35:00;97060.0;;;
68446;BMP280;35789;48.414;12.768;2023-04-28T01:40:00;97050.0;;;
68446;BMP280;35789;48.414;12.768;2023-04-28T01:45:03;97050.0;;;
68446;BMP280;35789;48.414;12.768;2023-04-28T01:50:00;97050.0;;;
68446;BMP280;35789;48.414;12.768;2023-04-28T01:55:00;97040.0;;;
68446;BMP280;35789;48.414;12.768;2023-04-28T02:00:01;97040.0;;;
68446;BMP280;35789;48.414;12.768;2023-04-28T02:05:00;97040.0;;;
68446;BMP280;35789;48.414;12.768;2023-04-28T02:10:00;97040.0;;;
68446;BMP280;35789;48.414;12.768;2023-04-28T02:15:00;97040.0;;;
68446;BMP280;35789;48.414;12.768;2023-04-28T02:20:00;97040.0;;;
68446;BMP280;35789;48.414;12.768;2023-04-28T02:25:00;97030.0;;;
68446;BMP280;35789;48.414;12.768;2023-04-28T02:30:00;97030.0;;;
68446;BMP280;35789;48.414;12.768;2023-04-28T02:35:00;97030.0;;;
68446;BMP280;35789;48.414;12.768;2023-04-28T02:40:00;97040.0;;;
68446;BMP280;35789;48.414;12.768;2023-04-28T02:45:00;97040.0;;;
68446;BMP280;35789;48.414;12.768;2023-04-28T02:50:00;97020.0;;;
68446;BMP280;35789;48.414;12.768;2023-04-28T02:55:00;97030.0;;;
68446;BMP280;35789;48.414;12.768;2023-04-28T03:00:00;97020.0;;;
68446;BMP280;35789;48.414;12.768;2023-04-28T03:05:00;97020.0;;;
68446;BMP280;35789;48.414;12.768;2023-04-28T03:10:00;97010.0;;;
68446;BMP280;35789;48.414;12.768;2023-04-28T03:15:00;97010.0;;;
68446;BMP280;35789;48.414;12.768;2023-04-28T03:20:00;97010.0;;;
68446;BMP280;35789;48.414;12.768;2023-04-28T03:25:01;97010.0;;;
68446;BMP280;35789;48.414;12.768;2023-04-28T03:30:00;97000.0;;;
68446;BMP280;35789;48.414;12.768;2023-04-28T03:35:00;97000.0;;;
68446;BMP280;35789;48.414;12.768;2023-04-28T03:40:00;96990.0;;;
68446;BMP280;35789;48.414;12.768;2023-04-28T03:45:00;96990.0;;;
68446;BMP280;35789;48.414;12.768;2023-04-28T03:50:00;97000.0;;;
68446;BMP280;35789;48.414;12.768;2023-04-28T03:55:00;97000.0;;;
68446;BMP280;35789;48.414;12.768;2023-04-28T04:00:01;97000.0;;;
68446;BMP280;35789;48.414;12.768;2023-04-28T04:05:00;97000.0;;;
68446;BMP280;35789;48.414;12.768;2023-04-28T04:10:00;96990.0;;;
68446;BMP280;35789;48.414;12.768;2023-04-28T04:15:00;96990.0;;;
68446;BMP280;35789;48.414;12.768;2023-04-28T04:20:00;96990.0;;;
68446;BMP280;35789;48.414;12.768;2023-04-28T04:25:00;97000.0;;;
68446;BMP280;35789;48.414;12.768;2023-04-28T04:30:00;96990.0;;;
68446;BMP280;35789;48.414;12.768;2023-04-28T04:35:00;96980.0;;;
68446;BMP280;35789;48.414;12.768;2023-04-28T04:40:00;96980.0;;;
68446;BMP280;35789;48.414;12.768;2023-04-28T04:45:00;96980.0;;;
68446;BMP280;35789;48.414;12.768;2023-04-28T04:50:00;96970.0;;;
68446;BMP280;35789;48.414;12.768;2023-04-28T04:55:00;96970.0;;;
68446;BMP280;35789;48.414;12.768;2023-04-28T05:00:00;96960.0;;;
68446;BMP280;35789;48.414;12.768;2023-04-28T05:05:00;96950.0;;;
68446;BMP280;35789;48.414;12.768;2023-04-28T05:10:01;96950.0;;;
68446;BMP280;35789;48.414;12.768;2023-04-28T05:15:00;96950.0;;;
68446;BMP280;35789;48.414;12.768;2023-04-28T05:20:00;96950.0;;;
68446;BMP280;35789;48.414;12.768;2023-04-28T05:25:00;96950.0;;;
68446;BMP280;35789;48.414;12.768;2023-04-28T05:30:00;96950.0;;;
68446;BMP280;35789;48.414;12.768;2023-04-28T05:35:01;96950.0;;;
68446;BMP280;35789;48.414;12.768;2023-04-28T05:40:00;96940.0;;;
68446;BMP280;35789;48.414;12.768;2023-04-28T05:45:00;96940.0;;;
68446;BMP280;35789;48.414;12.768;2023-04-28T05:50:00;96940.0;;;
68446;BMP280;35789;48.414;12.768;2023-04-28T05:55:00;96930.0;;;
68446;BMP280;35789;48.414;12.768;2023-04-28T06:00:00;96940.0;;;
68446;BMP280;35789;48.414;12.768;2023-04-28T06:05:00;96940.0;;;
68446;BMP280;35789;48.414;12.768;2023-04-28T06:10:00;96940.0;;;
68446;BMP280;35789;48.414;12.768;2023-04-28T06:15:00;96940.0;;;
68446;BMP280;35789;48.414;12.768;2023-04-28T06:20:00;96950.0;;;
68446;BMP280;35789;48.414;12.768;2023-04-28T06:25:00;96930.0;;;
68446;BMP280;35789;48.414;12.768;2023-04-28T06:30:02;96930.0;;;
68446;BMP280;35789;48.414;12.768;2023-04-28T06:35:00;96930.0;;;
68446;BMP280;35789;48.414;12.768;2023-04-28T06:40:00;96930.0;;;
68446;BMP280;35789;48.414;12.768;2023-04-28T06:45:00;96930.0;;;
68446;BMP280;35789;48.414;12.768;2023-04-28T06:50:00;96920.0;;;
68446;BMP280;35789;48.414;12.768;2023-04-28T06:55:00;96930.0;;;
68446;BMP280;35789;48.414;12.768;2023-04-28T07:00:01;96930.0;;;
68446;BMP280;35789;48.414;12.768;2023-04-28T07:05:01;96930.0;;;
68446;BMP280;35789;48.414;12.768;2023-04-28T07:10:00;96930.0;;;
68446;BMP280;35789;48.414;12.768;2023-04-28T07:15:00;96920.0;;;
68446;BMP280;35789;48.414;12.768;2023-04-28T07:20:00;96920.0;;;
68446;BMP280;35789;48.414;12.768;2023-04-28T07:25:00;96910.0;;;
68446;BMP280;35789;48.414;12.768;2023-04-28T07:30:00;96910.0;;;
68446;BMP280;35789;48.414;12.768;2023-04-28T07:35:00;96910.0;;;
68446;BMP280;35789;48.414;12.768;2023-04-28T07:40:00;96910.0;;;
68446;BMP280;35789;48.414;12.768;2023-04-28T07:45:00;96910.0;;;
68446;BMP280;35789;48.414;12.768;2023-04-28T07:50:00;96910.0;;;
68446;BMP280;35789;48.414;12.768;2023-04-28T07:55:00;96930.0;;;
68446;BMP280;35789;48.414;12.768;2023-04-28T08:00:00;96940.0;;;
68446;BMP280;35789;48.414;12.768;2023-04-28T08:05:00;96940.0;;;
68446;BMP280;35789;48.414;12.768;2023-04-28T08:10:00;96960.0;;;
68446;BMP280;35789;48.414;12.768;2023-04-28T08:15:00;96960.0;;;
68446;BMP280;35789;48.414;12.768;2023-04-28T08:20:00;96970.0;;;
68446;BMP280;35789;48.414;12.768;2023-04-28T08:25:00;96970.0;;;
68446;BMP280;35789;48.414;12.768;2023-04-28T08:30:00;96970.0;;;
68446;BMP280;35789;48.414;12.768;2023-04-28T08:35:00;96980.0;;;
68446;BMP280;35789;48.414;12.768;2023-04-28T08:40:00;96980.0;;;
68446;BMP280;35789;48.414;12.768;2023-04-28T08:45:03;96980.0;;;
68446;BMP280;35789;48.414;12.768;2023-04-28T08:50:02;96960.0;;;
68446;BMP280;35789;48.414;12.768;2023-04-28T08:55:05;96960.0;;;
68446;BMP280;35789;48.414;12.768;2023-04-28T09:00:00;96960.0;;;
68446;BMP280;35789;48.414;12.768;2023-04-28T09:05:00;96960.0;;;
68446;BMP280;35789;48.414;12.768;2023-04-28T09:10:16;96960.0;;;
68446;BMP280;35789;48.414;12.768;2023-04-28T09:15:00;96950.0;;;
68446;BMP280;35789;48.414;12.768;2023-04-28T09:20:00;96940.0;;;
68446;BMP280;35789;48.414;12.768;2023-04-28T09:25:10;96940.0;;;
68446;BMP280;35789;48.414;12.768;2023-04-28T09:30:00;96930.0;;;
68446;BMP280;35789;48.414;12.768;2023-04-28T09:35:01;96920.0;;;
68446;BMP280;35789;48.414;12.768;2023-04-28T09:40:06;96920.0;;;
68446;BMP280;35789;48.414;12.768;2023-04-28T09:45:01;96910.0;;;
68446;BMP280;35789;48.414;12.768;2023-04-28T09:50:02;96900.0;;;
68446;BMP280;35789;48.414;12.768;2023-04-28T09:55:02;96900.0;;;
68446;BMP280;35789;48.414;12.768;2023-04-28T10:00:02;96890.0;;;
68446;BMP280;35789;48.414;12.768;2023-04-28T10:05:01;96880.0;;;
68446;BMP280;35789;48.414;12.768;2023-04-28T10:10:01;96880.0;;;
68446;BMP280;35789;48.414;12.768;2023-04-28T10:15:01;96880.0;;;
68446;BMP280;35789;48.414;12.768;2023-04-28T10:20:00;96880.0;;;
68446;BMP280;35789;48.414;12.768;2023-04-28T10:25:19;96870.0;;;
68446;BMP280;35789;48.414;12.768;2023-04-28T10:30:11;96850.0;;;
68446;BMP280;35789;48.414;12.768;2023-04-28T10:45:00;96850.0;;;
68446;BMP280;35789;48.414;12.768;2023-04-28T10:50:06;96840.0;;;
68446;BMP280;35789;48.414;12.768;2023-04-28T10:55:28;96840.0;;;
68446;BMP280;35789;48.414;12.768;2023-04-28T11:00:27;96850.0;;;
68446;BMP280;35789;48.414;12.768;2023-04-28T11:05:11;96850.0;;;
68446;BMP280;35789;48.414;12.768;2023-04-28T11:10:00;96860.0;;;
68446;BMP280;35789;48.414;12.768;2023-04-28T11:15:11;96860.0;;;
68446;BMP280;35789;48.414;12.768;2023-04-28T11:20:01;96860.0;;;
68446;BMP280;35789;48.414;12.768;2023-04-28T11:25:01;96860.0;;;
68446;BMP280;35789;48.414;12.768;2023-04-28T11:30:01;96860.0;;;
68446;BMP280;35789;48.414;12.768;2023-04-28T11:35:01;96860.0;;;
68446;BMP280;35789;48.414;12.768;2023-04-28T11:40:09;96860.0;;;
68446;BMP280;35789;48.414;12.768;2023-04-28T11:45:00;96860.0;;;
68446;BMP280;35789;48.414;12.768;2023-04-28T11:50:00;96860.0;;;
68446;BMP280;35789;48.414;12.768;2023-04-28T11:55:00;96850.0;;;
68446;BMP280;35789;48.414;12.768;2023-04-28T12:00:11;96850.0;;;
68446;BMP280;35789;48.414;12.768;2023-04-28T12:05:05;96840.0;;;
68446;BMP280;35789;48.414;12.768;2023-04-28T12:10:11;96830.0;;;
68446;BMP280;35789;48.414;12.768;2023-04-28T12:15:03;96830.0;;;
68446;BMP280;35789;48.414;12.768;2023-04-28T12:20:03;96830.0;;;
68446;BMP280;35789;48.414;12.768;2023-04-28T12:25:03;96830.0;;;
68446;BMP280;35789;48.414;12.768;2023-04-28T12:30:00;96830.0;;;
68446;BMP280;35789;48.414;12.768;2023-04-28T12:35:00;96840.0;;;
68446;BMP280;35789;48.414;12.768;2023-04-28T12:40:00;96830.0;;;
68446;BMP280;35789;48.414;12.768;2023-04-28T12:45:00;96830.0;;;
68446;BMP280;35789;48.414;12.768;2023-04-28T12:50:00;96830.0;;;
68446;BMP280;35789;48.414;12.768;2023-04-28T12:55:00;96820.0;;;
68446;BMP280;35789;48.414;12.768;2023-04-28T13:00:00;96810.0;;;
68446;BMP280;35789;48.414;12.768;2023-04-28T13:05:00;96800.0;;;
68446;BMP280;35789;48.414;12.768;2023-04-28T13:10:00;96800.0;;;
68446;BMP280;35789;48.414;12.768;2023-04-28T13:15:00;96810.0;;;
68446;BMP280;35789;48.414;12.768;2023-04-28T13:20:00;96790.0;;;
68446;BMP280;35789;48.414;12.768;2023-04-28T13:25:00;96800.0;;;
68446;BMP280;35789;48.414;12.768;2023-04-28T13:30:00;96790.0;;;
68446;BMP280;35789;48.414;12.768;2023-04-28T13:35:00;96790.0;;;
68446;BMP280;35789;48.414;12.768;2023-04-28T13:40:00;96790.0;;;
68446;BMP280;35789;48.414;12.768;2023-04-28T13:45:00;96780.0;;;
68446;BMP280;35789;48.414;12.768;2023-04-28T13:50:00;96780.0;;;
68446;BMP280;35789;48.414;12.768;2023-04-28T13:55:00;96770.0;;;
68446;BMP280;35789;48.414;12.768;2023-04-28T14:00:00;96760.0;;;
68446;BMP280;35789;48.414;12.768;2023-04-28T14:05:00;96760.0;;;
68446;BMP280;35789;48.414;12.768;2023-04-28T14:10:00;96760.0;;;
68446;BMP280;35789;48.414;12.768;2023-04-28T14:15:00;96760.0;;;
68446;BMP280;35789;48.414;12.768;2023-04-28T14:20:02;96760.0;;;
68446;BMP280;35789;48.414;12.768;2023-04-28T14:25:00;96770.0;;;
68446;BMP280;35789;48.414;12.768;2023-04-28T14:30:00;96760.0;;;
68446;BMP280;35789;48.414;12.768;2023-04-28T14:35:00;96760.0;;;
68446;BMP280;35789;48.414;12.768;2023-04-28T14:40:00;96750.0;;;
68446;BMP280;35789;48.414;12.768;2023-04-28T14:45:01;96740.0;;;
68446;BMP280;35789;48.414;12.768;2023-04-28T14:50:00;96730.0;;;
68446;BMP280;35789;48.414;12.768;2023-04-28T14:55:00;96730.0;;;
68446;BMP280;35789;48.414;12.768;2023-04-28T15:00:00;96730.0;;;
68446;BMP280;35789;48.414;12.768;2023-04-28T15:05:00;96720.0;;;
68446;BMP280;35789;48.414;12.768;2023-04-28T15:10:00;96720.0;;;
68446;BMP280;35789;48.414;12.768;2023-04-28T15:15:00;96710.0;;;
68446;BMP280;35789;48.414;12.768;2023-04-28T15:20:00;96720.0;;;
68446;BMP280;35789;48.414;12.768;2023-04-28T15:25:00;96710.0;;;
68446;BMP280;35789;48.414;12.768;2023-04-28T15:30:00;96700.0;;;
68446;BMP280;35789;48.414;12.768;2023-04-28T15:35:00;96700.0;;;
68446;BMP280;35789;48.414;12.768;2023-04-28T15:40:00;96710.0;;;
68446;BMP280;35789;48.414;12.768;2023-04-28T15:45:00;96700.0;;;
68446;BMP280;35789;48.414;12.768;2023-04-28T15:50:00;96700.0;;;
68446;BMP280;35789;48.414;12.768;2023-04-28T15:55:00;96710.0;;;
68446;BMP280;35789;48.414;12.768;2023-04-28T16:00:02;96710.0;;;
68446;BMP280;35789;48.414;12.768;2023-04-28T16:05:00;96720.0;;;
68446;BMP280;35789;48.414;12.768;2023-04-28T16:10:00;96710.0;;;
68446;BMP280;35789;48.414;12.768;2023-04-28T16:15:00;96700.0;;;
68446;BMP280;35789;48.414;12.768;2023-04-28T16:20:01;96690.0;;;
68446;BMP280;35789;48.414;12.768;2023-04-28T16:25:00;96690.0;;;
68446;BMP280;35789;48.414;12.768;2023-04-28T16:30:01;96680.0;;;
68446;BMP280;35789;48.414;12.768;2023-04-28T16:35:01;96660.0;;;
68446;BMP280;35789;48.414;12.768;2023-04-28T16:40:00;96630.0;;;
68446;BMP280;35789;48.414;12.768;2023-04-28T16:45:00;96620.0;;;
68446;BMP280;35789;48.414;12.768;2023-04-28T16:50:00;96660.0;;;
68446;BMP280;35789;48.414;12.768;2023-04-28T16:55:00;96650.0;;;
68446;BMP280;35789;48.414;12.768;2023-04-28T17:00:00;96670.0;;;
68446;BMP280;35789;48.414;12.768;2023-04-28T17:05:00;96690.0;;;
68446;BMP280;35789;48.414;12.768;2023-04-28T17:10:00;96680.0;;;
68446;BMP280;35789;48.414;12.768;2023-04-28T17:15:00;96670.0;;;
68446;BMP280;35789;48.414;12.768;2023-04-28T17:20:00;96680.0;;;
68446;BMP280;35789;48.414;12.768;2023-04-28T17:25:00;96660.0;;;
68446;BMP280;35789;48.414;12.768;2023-04-28T17:30:00;96660.0;;;
68446;BMP280;35789;48.414;12.768;2023-04-28T17:35:00;96650.0;;;
68446;BMP280;35789;48.414;12.768;2023-04-28T17:40:00;96650.0;;;
68446;BMP280;35789;48.414;12.768;2023-04-28T17:45:00;96660.0;;;
68446;BMP280;35789;48.414;12.768;2023-04-28T17:50:00;96660.0;;;
68446;BMP280;35789;48.414;12.768;2023-04-28T17:55:00;96670.0;;;
68446;BMP280;35789;48.414;12.768;2023-04-28T18:00:00;96670.0;;;
68446;BMP280;35789;48.414;12.768;2023-04-28T18:05:00;96680.0;;;
68446;BMP280;35789;48.414;12.768;2023-04-28T18:10:00;96680.0;;;
68446;BMP280;35789;48.414;12.768;2023-04-28T18:15:00;96690.0;;;
68446;BMP280;35789;48.414;12.768;2023-04-28T18:20:00;96680.0;;;
68446;BMP280;35789;48.414;12.768;2023-04-28T18:25:00;96690.0;;;
68446;BMP280;35789;48.414;12.768;2023-04-28T18:30:00;96700.0;;;
68446;BMP280;35789;48.414;12.768;2023-04-28T18:35:00;96700.0;;;
68446;BMP280;35789;48.414;12.768;2023-04-28T18:40:00;96690.0;;;
68446;BMP280;35789;48.414;12.768;2023-04-28T18:45:00;96690.0;;;
68446;BMP280;35789;48.414;12.768;2023-04-28T18:50:00;96690.0;;;
68446;BMP280;35789;48.414;12.768;2023-04-28T18:55:00;96700.0;;;
68446;BMP280;35789;48.414;12.768;2023-04-28T19:00:00;96720.0;;;
68446;BMP280;35789;48.414;12.768;2023-04-28T19:05:01;96740.0;;;
68446;BMP280;35789;48.414;12.768;2023-04-28T19:10:00;96750.0;;;
68446;BMP280;35789;48.414;12.768;2023-04-28T19:15:00;96750.0;;;
68446;BMP280;35789;48.414;12.768;2023-04-28T19:20:00;96760.0;;;
68446;BMP280;35789;48.414;12.768;2023-04-28T19:25:01;96760.0;;;
68446;BMP280;35789;48.414;12.768;2023-04-28T19:30:02;96760.0;;;
68446;BMP280;35789;48.414;12.768;2023-04-28T19:35:01;96770.0;;;
68446;BMP280;35789;48.414;12.768;2023-04-28T19:40:01;96770.0;;;
68446;BMP280;35789;48.414;12.768;2023-04-28T19:45:00;96740.0;;;
68446;BMP280;35789;48.414;12.768;2023-04-28T19:50:00;96750.0;;;
68446;BMP280;35789;48.414;12.768;2023-04-28T19:55:00;96760.0;;;
68446;BMP280;35789;48.414;12.768;2023-04-28T20:00:00;96770.0;;;
68446;BMP280;35789;48.414;12.768;2023-04-28T20:05:00;96770.0;;;
68446;BMP280;35789;48.414;12.768;2023-04-28T20:10:00;96770.0;;;
68446;BMP280;35789;48.414;12.768;2023-04-28T20:15:00;96750.0;;;
68446;BMP280;35789;48.414;12.768;2023-04-28T20:20:02;96720.0;;;
68446;BMP280;35789;48.414;12.768;2023-04-28T20:25:00;96710.0;;;
68446;BMP280;35789;48.414;12.768;2023-04-28T20:30:01;96720.0;;;
68446;BMP280;35789;48.414;12.768;2023-04-28T20:35:00;96730.0;;;
68446;BMP280;35789;48.414;12.768;2023-04-28T20:40:00;96700.0;;;
68446;BMP280;35789;48.414;12.768;2023-04-28T20:45:00;96710.0;;;
68446;BMP280;35789;48.414;12.768;2023-04-28T20:50:00;96730.0;;;
68446;BMP280;35789;48.414;12.768;2023-04-28T20:55:00;96740.0;;;
68446;BMP280;35789;48.414;12.768;2023-04-28T21:00:00;96740.0;;;
68446;BMP280;35789;48.414;12.768;2023-04-28T21:05:00;96740.0;;;
68446;BMP280;35789;48.414;12.768;2023-04-28T21:10:00;96740.0;;;
68446;BMP280;35789;48.414;12.768;2023-04-28T21:15:00;96760.0;;;
68446;BMP280;35789;48.414;12.768;2023-04-28T21:20:00;96760.0;;;
68446;BMP280;35789;48.414;12.768;2023-04-28T21:25:00;96760.0;;;
68446;BMP280;35789;48.414;12.768;2023-04-28T21:30:00;96760.0;;;
68446;BMP280;35789;48.414;12.768;2023-04-28T21:35:00;96770.0;;;
68446;BMP280;35789;48.414;12.768;2023-04-28T21:40:00;96770.0;;;
68446;BMP280;35789;48.414;12.768;2023-04-28T21:45:00;96790.0;;;
68446;BMP280;35789;48.414;12.768;2023-04-28T21:50:00;96790.0;;;
68446;BMP280;35789;48.414;12.768;2023-04-28T21:55:00;96790.0;;;
68446;BMP280;35789;48.414;12.768;2023-04-28T22:00:00;96790.0;;;
68446;BMP280;35789;48.414;12.768;2023-04-28T22:05:00;96790.0;;;
68446;BMP280;35789;48.414;12.768;2023-04-28T22:10:00;96790.0;;;
68446;BMP280;35789;48.414;12.768;2023-04-28T22:15:00;96800.0;;;
68446;BMP280;35789;48.414;12.768;2023-04-28T22:20:00;96790.0;;;
68446;BMP280;35789;48.414;12.768;2023-04-28T22:25:00;96790.0;;;
68446;BMP280;35789;48.414;12.768;2023-04-28T22:30:00;96790.0;;;
68446;BMP280;35789;48.414;12.768;2023-04-28T22:35:00;96790.0;;;
68446;BMP280;35789;48.414;12.768;2023-04-28T22:40:00;96790.0;;;
68446;BMP280;35789;48.414;12.768;2023-04-28T22:45:00;96790.0;;;
68446;BMP280;35789;48.414;12.768;2023-04-28T22:50:00;96790.0;;;
68446;BMP280;35789;48.414;12.768;2023-04-28T22:55:00;96780.0;;;
68446;BMP280;35789;48.414;12.768;2023-04-28T23:00:00;96790.0;;;
68446;BMP280;35789;48.414;12.768;2023-04-28T23:05:00;96770.0;;;
68446;BMP280;35789;48.414;12.768;2023-04-28T23:10:01;96770.0;;;
68446;BMP280;35789;48.414;12.768;2023-04-28T23:15:00;96770.0;;;
68446;BMP280;35789;48.414;12.768;2023-04-28T23:20:00;96780.0;;;
68446;BMP280;35789;48.414;12.768;2023-04-28T23:25:00;96770.0;;;
68446;BMP280;35789;48.414;12.768;2023-04-28T23:30:00;96760.0;;;
68446;BMP280;35789;48.414;12.768;2023-04-28T23:35:00;96750.0;;;
68446;BMP280;35789;48.414;12.768;2023-04-28T23:40:00;96750.0;;;
68446;BMP280;35789;48.414;12.768;2023-04-28T23:45:00;96740.0;;;
68446;BMP280;35789;48.414;12.768;2023-04-28T23:50:00;96740.0;;;
68446;BMP280;35789;48.414;12.768;2023-04-28T23:55:00;96740.0;;;
